createdAt,value
2023-02-16T00:01:17.062Z,4.73
2023-02-16T00:03:28.459Z,4.73
2023-02-16T00:05:34.958Z,4.73
2023-02-16T00:07:36.523Z,4.73
2023-02-16T00:09:38.164Z,4.72
2023-02-16T00:12:02.562Z,4.73
2023-02-16T00:14:07.143Z,4.71
2023-02-16T00:16:14.613Z,4.70
2023-02-16T00:18:19.235Z,4.69
2023-02-16T00:20:21.037Z,4.68
2023-02-16T00:22:22.575Z,4.68
2023-02-16T00:24:28.885Z,4.68
2023-02-16T00:26:34.149Z,4.69
2023-02-16T00:28:38.474Z,4.68
2023-02-16T00:30:40.261Z,4.67
2023-02-16T00:32:42.215Z,4.64
2023-02-16T00:34:45.545Z,4.62
2023-02-16T00:36:47.076Z,4.65
2023-02-16T00:38:48.685Z,4.66
2023-02-16T00:40:50.431Z,4.63
2023-02-16T00:42:52.323Z,4.61
2023-02-16T00:44:58.759Z,4.64
2023-02-16T00:47:19.955Z,4.60
2023-02-16T00:49:22.876Z,4.63
2023-02-16T00:51:26.283Z,4.62
2023-02-16T00:53:37.316Z,4.62
2023-02-16T00:55:43.626Z,4.63
2023-02-16T00:57:52.032Z,4.62
2023-02-16T01:00:19.792Z,4.62
2023-02-16T01:02:22.637Z,4.62
2023-02-16T01:04:24.542Z,4.62
2023-02-16T01:06:44.734Z,4.61
2023-02-16T01:09:04.612Z,4.61
2023-02-16T01:11:10.292Z,4.62
2023-02-16T01:13:15.420Z,4.60
2023-02-16T01:15:22.502Z,4.61
2023-02-16T01:17:25.353Z,4.61
2023-02-16T01:19:28.880Z,4.60
2023-02-16T01:21:30.460Z,4.60
2023-02-16T01:23:32.047Z,4.59
2023-02-16T01:25:34.191Z,4.60
2023-02-16T01:27:39.709Z,4.61
2023-02-16T01:29:41.425Z,4.63
2023-02-16T01:31:44.180Z,4.61
2023-02-16T01:33:45.906Z,4.59
2023-02-16T01:35:50.200Z,4.58
2023-02-16T01:37:51.970Z,4.58
2023-02-16T01:39:53.485Z,4.58
2023-02-16T01:42:11.731Z,4.56
2023-02-16T01:44:23.526Z,4.56
2023-02-16T01:46:53.122Z,4.55
2023-02-16T01:48:56.617Z,4.55
2023-02-16T01:51:07.278Z,4.54
2023-02-16T01:53:20.937Z,4.53
2023-02-16T01:55:27.435Z,4.51
2023-02-16T01:57:44.818Z,4.49
2023-02-16T01:59:49.971Z,4.50
2023-02-16T02:01:59.884Z,4.51
2023-02-16T02:04:21.322Z,4.50
2023-02-16T02:06:32.872Z,4.49
2023-02-16T02:08:58.458Z,4.49
2023-02-16T02:11:26.102Z,4.48
2023-02-16T02:13:52.425Z,4.47
2023-02-16T02:15:58.569Z,4.49
2023-02-16T02:18:01.563Z,4.47
2023-02-16T02:20:15.419Z,4.46
2023-02-16T02:23:12.772Z,4.45
2023-02-16T02:25:28.263Z,4.44
2023-02-16T02:27:57.444Z,4.43
2023-02-16T02:30:23.074Z,4.42
2023-02-16T02:32:59.479Z,4.41
2023-02-16T02:35:22.794Z,4.42
2023-02-16T02:37:29.766Z,4.41
2023-02-16T02:39:56.716Z,4.39
2023-02-16T02:42:10.865Z,4.38
2023-02-16T02:44:23.986Z,4.39
2023-02-16T02:46:30.530Z,4.38
2023-02-16T02:48:34.602Z,4.39
2023-02-16T02:51:11.220Z,4.40
2023-02-16T02:53:15.920Z,4.37
2023-02-16T02:55:37.656Z,4.37
2023-02-16T02:58:04.050Z,4.36
2023-02-16T03:00:24.785Z,4.35
2023-02-16T03:02:28.765Z,4.34
2023-02-16T03:04:34.116Z,4.34
2023-02-16T03:06:43.899Z,4.31
2023-02-16T03:08:50.118Z,4.32
2023-02-16T03:11:30.592Z,4.30
2023-02-16T03:13:42.373Z,4.31
2023-02-16T03:15:46.938Z,4.28
2023-02-16T03:18:07.776Z,4.24
2023-02-16T03:20:32.424Z,4.26
2023-02-16T03:22:54.355Z,4.22
2023-02-16T03:25:14.405Z,4.23
2023-02-16T03:27:57.256Z,4.18
2023-02-16T03:30:03.417Z,4.16
2023-02-16T03:32:08.135Z,4.13
2023-02-16T03:34:12.692Z,4.11
2023-02-16T03:36:14.503Z,4.08
2023-02-16T03:38:16.508Z,4.09
2023-02-16T03:40:30.942Z,4.06
2023-02-16T03:42:32.707Z,4.06
2023-02-16T03:44:34.359Z,4.04
2023-02-16T03:46:35.956Z,4.01
2023-02-16T03:48:37.560Z,3.99
2023-02-16T03:50:39.269Z,3.97
2023-02-16T03:52:40.958Z,3.97
2023-02-16T03:54:45.546Z,3.94
2023-02-16T03:56:47.011Z,3.92
2023-02-16T03:58:48.483Z,3.89
2023-02-16T04:00:51.222Z,3.90
2023-02-16T04:02:52.885Z,3.86
2023-02-16T04:04:54.607Z,3.82
2023-02-16T04:06:56.192Z,3.83
2023-02-16T04:08:57.889Z,3.80
2023-02-16T04:11:00.374Z,3.77
2023-02-16T04:13:02.202Z,3.73
2023-02-16T04:15:09.067Z,3.68
2023-02-16T04:17:10.634Z,3.68
2023-02-16T04:19:12.202Z,3.65
2023-02-16T04:21:13.694Z,3.63
2023-02-16T04:23:15.264Z,3.61
2023-02-16T04:25:20.901Z,3.59
2023-02-16T04:27:22.736Z,3.55
2023-02-16T04:29:24.291Z,3.54
2023-02-16T04:31:25.954Z,3.50
2023-02-16T04:33:28.199Z,3.49
2023-02-16T04:35:30.126Z,3.48
2023-02-16T04:37:31.777Z,3.47
2023-02-16T04:39:33.499Z,3.43
2023-02-16T04:41:35.011Z,3.38
2023-02-16T04:43:36.787Z,3.40
2023-02-16T04:45:38.313Z,3.36
2023-02-16T04:47:40.396Z,3.30
2023-02-16T04:49:42.136Z,3.32
2023-02-16T04:51:43.779Z,3.29
2023-02-16T04:53:45.421Z,3.28
2023-02-16T04:55:50.781Z,3.23
2023-02-16T04:57:52.485Z,3.22
2023-02-16T05:00:03.037Z,3.20
2023-02-16T05:02:05.038Z,3.17
2023-02-16T05:04:06.815Z,3.16
2023-02-16T05:06:08.516Z,3.13
2023-02-16T05:08:10.235Z,3.11
2023-02-16T05:10:11.851Z,3.10
2023-02-16T05:12:31.998Z,3.09
2023-02-16T05:14:45.478Z,3.05
2023-02-16T05:16:47.210Z,3.01
2023-02-16T05:18:48.866Z,2.97
2023-02-16T05:21:08.878Z,2.96
2023-02-16T05:23:10.514Z,2.93
2023-02-16T05:25:12.294Z,2.93
2023-02-16T05:27:19.865Z,2.89
2023-02-16T05:29:25.770Z,2.86
2023-02-16T05:31:30.095Z,2.89
2023-02-16T05:33:31.814Z,2.85
2023-02-16T05:35:34.965Z,2.85
2023-02-16T05:37:36.674Z,2.82
2023-02-16T05:39:38.416Z,2.81
2023-02-16T05:41:40.057Z,2.81
2023-02-16T05:43:41.692Z,2.81
2023-02-16T05:45:43.475Z,2.81
2023-02-16T05:47:47.167Z,2.80
2023-02-16T05:49:51.462Z,2.79
2023-02-16T05:51:53.167Z,2.76
2023-02-16T05:53:55.883Z,2.77
2023-02-16T05:55:57.615Z,2.74
2023-02-16T05:57:59.307Z,2.73
2023-02-16T06:00:01.182Z,2.73
2023-02-16T06:02:02.726Z,2.72
2023-02-16T06:04:04.892Z,2.70
2023-02-16T06:06:06.772Z,2.70
2023-02-16T06:08:11.721Z,2.68
2023-02-16T06:10:21.060Z,2.67
2023-02-16T06:12:22.703Z,2.65
2023-02-16T06:14:24.428Z,2.63
2023-02-16T06:16:28.077Z,2.63
2023-02-16T06:18:29.682Z,2.61
2023-02-16T06:20:31.459Z,2.62
2023-02-16T06:22:35.896Z,2.58
2023-02-16T06:24:38.560Z,2.56
2023-02-16T06:26:40.307Z,2.54
2023-02-16T06:28:42.605Z,2.53
2023-02-16T06:30:44.368Z,2.53
2023-02-16T06:32:49.328Z,2.52
2023-02-16T06:34:53.753Z,2.53
2023-02-16T06:36:55.462Z,2.51
2023-02-16T06:38:57.227Z,2.51
2023-02-16T06:41:01.004Z,2.52
2023-02-16T06:43:02.929Z,2.52
2023-02-16T06:45:04.943Z,2.53
2023-02-16T06:47:06.709Z,2.53
2023-02-16T06:49:12.599Z,2.54
2023-02-16T06:51:20.358Z,2.55
2023-02-16T06:53:21.892Z,2.58
2023-02-16T06:55:23.593Z,2.58
2023-02-16T06:57:25.126Z,2.58
2023-02-16T06:59:26.771Z,2.60
2023-02-16T07:01:29.109Z,2.62
2023-02-16T07:03:30.673Z,2.65
2023-02-16T07:05:35.436Z,2.64
2023-02-16T07:07:37.029Z,2.65
2023-02-16T07:09:38.700Z,2.66
2023-02-16T07:11:40.863Z,2.67
2023-02-16T07:13:42.710Z,2.70
2023-02-16T07:15:44.425Z,2.71
2023-02-16T07:17:46.131Z,2.73
2023-02-16T07:19:47.688Z,2.75
2023-02-16T07:21:49.395Z,2.78
2023-02-16T07:23:51.124Z,2.81
2023-02-16T07:25:52.779Z,2.83
2023-02-16T07:27:57.030Z,2.85
2023-02-16T07:30:02.032Z,2.85
2023-02-16T07:32:04.354Z,2.86
2023-02-16T07:34:06.073Z,2.90
2023-02-16T07:36:09.185Z,2.93
2023-02-16T07:38:11.108Z,2.94
2023-02-16T07:40:13.412Z,2.97
2023-02-16T07:42:18.072Z,2.98
2023-02-16T07:44:22.290Z,3.01
2023-02-16T07:46:24.314Z,3.03
2023-02-16T07:48:34.789Z,3.06
2023-02-16T07:50:37.571Z,3.07
2023-02-16T07:52:39.448Z,3.08
2023-02-16T07:54:40.992Z,3.11
2023-02-16T07:56:42.729Z,3.14
2023-02-16T07:58:47.454Z,3.18
2023-02-16T08:00:49.154Z,3.20
2023-02-16T08:02:50.875Z,3.20
2023-02-16T08:04:53.490Z,3.25
2023-02-16T08:06:55.088Z,3.29
2023-02-16T08:08:59.316Z,3.33
2023-02-16T08:11:07.805Z,3.38
2023-02-16T08:13:09.452Z,3.39
2023-02-16T08:15:13.543Z,3.43
2023-02-16T08:17:16.192Z,3.46
2023-02-16T08:19:17.731Z,3.50
2023-02-16T08:21:21.907Z,3.53
2023-02-16T08:23:23.665Z,3.59
2023-02-16T08:25:25.778Z,3.65
2023-02-16T08:27:27.612Z,3.69
2023-02-16T08:29:33.577Z,3.76
2023-02-16T08:31:38.430Z,3.81
2023-02-16T08:33:40.562Z,3.84
2023-02-16T08:35:43.106Z,3.90
2023-02-16T08:37:47.528Z,3.94
2023-02-16T08:39:49.276Z,4.00
2023-02-16T08:41:51.139Z,4.06
2023-02-16T08:43:53.197Z,4.12
2023-02-16T08:45:55.001Z,4.17
2023-02-16T08:47:57.688Z,4.24
2023-02-16T08:49:59.083Z,4.31
2023-02-16T08:52:01.777Z,4.38
2023-02-16T08:54:08.715Z,4.44
2023-02-16T08:56:11.168Z,4.54
2023-02-16T08:58:15.788Z,4.61
2023-02-16T09:00:35.528Z,4.69
2023-02-16T09:02:37.814Z,4.77
2023-02-16T09:04:39.332Z,4.84
2023-02-16T09:06:44.537Z,4.90
2023-02-16T09:08:50.446Z,4.97
2023-02-16T09:10:52.498Z,5.04
2023-02-16T09:12:54.552Z,5.11
2023-02-16T09:14:56.078Z,5.19
2023-02-16T09:16:59.231Z,5.27
2023-02-16T09:19:01.790Z,5.34
2023-02-16T09:21:11.875Z,5.41
2023-02-16T09:23:13.469Z,5.48
2023-02-16T09:25:16.938Z,5.57
2023-02-16T09:27:20.197Z,5.66
2023-02-16T09:29:21.917Z,5.74
2023-02-16T09:31:28.826Z,5.85
2023-02-16T09:33:30.478Z,5.92
2023-02-16T09:35:32.776Z,6.01
2023-02-16T09:37:34.375Z,6.11
2023-02-16T09:39:39.662Z,6.21
2023-02-16T09:41:51.551Z,6.30
2023-02-16T09:44:21.004Z,6.41
2023-02-16T09:46:25.268Z,6.53
2023-02-16T09:48:45.852Z,6.65
2023-02-16T09:50:54.596Z,6.76
2023-02-16T09:53:20.420Z,6.88
2023-02-16T09:55:24.999Z,7.00
2023-02-16T09:57:46.928Z,7.12
2023-02-16T10:00:29.425Z,7.26
2023-02-16T10:02:55.386Z,7.40
2023-02-16T10:05:15.202Z,7.54
2023-02-16T10:07:54.168Z,7.71
2023-02-16T10:09:57.555Z,7.88
2023-02-16T10:12:19.564Z,8.07
2023-02-16T10:14:41.604Z,8.32
2023-02-16T10:16:52.793Z,8.60
2023-02-16T10:18:56.368Z,8.89
2023-02-16T10:21:09.349Z,9.19
2023-02-16T10:23:32.955Z,9.53
2023-02-16T10:25:52.513Z,9.89
2023-02-16T10:28:16.225Z,10.26
2023-02-16T10:30:20.949Z,10.63
2023-02-16T10:32:29.102Z,10.97
2023-02-16T10:34:42.811Z,11.31
2023-02-16T10:36:53.800Z,11.65
2023-02-16T10:39:22.197Z,11.97
2023-02-16T10:41:31.837Z,12.30
2023-02-16T10:44:12.103Z,12.65
2023-02-16T10:46:30.955Z,12.93
2023-02-16T10:48:34.246Z,13.18
2023-02-16T10:50:38.849Z,13.41
2023-02-16T10:52:42.509Z,13.62
2023-02-16T10:54:44.282Z,13.84
2023-02-16T10:56:52.645Z,14.04
2023-02-16T10:58:54.893Z,14.20
2023-02-16T11:01:08.456Z,14.37
2023-02-16T11:03:12.797Z,14.53
2023-02-16T11:05:27.235Z,14.68
2023-02-16T11:07:31.364Z,14.84
2023-02-16T11:09:33.094Z,14.97
2023-02-16T11:11:40.113Z,15.11
2023-02-16T11:13:42.007Z,15.25
2023-02-16T11:15:43.841Z,15.35
2023-02-16T11:17:58.213Z,15.45
2023-02-16T11:20:05.754Z,15.55
2023-02-16T11:22:25.954Z,15.61
2023-02-16T11:24:33.041Z,15.68
2023-02-16T11:26:34.590Z,15.70
2023-02-16T11:28:41.066Z,15.72
2023-02-16T11:30:43.389Z,15.71
2023-02-16T11:32:45.151Z,15.73
2023-02-16T11:34:49.885Z,15.71
2023-02-16T11:36:53.201Z,15.71
2023-02-16T11:39:09.295Z,15.83
2023-02-16T11:41:12.830Z,15.77
2023-02-16T11:43:18.479Z,15.74
2023-02-16T11:45:36.581Z,15.69
2023-02-16T11:47:42.090Z,15.68
2023-02-16T11:49:43.566Z,15.68
2023-02-16T11:51:45.128Z,15.70
2023-02-16T11:54:00.434Z,15.70
2023-02-16T11:56:17.256Z,15.72
2023-02-16T11:58:28.376Z,15.75
2023-02-16T12:00:31.763Z,15.76
2023-02-16T12:02:39.388Z,15.79
2023-02-16T12:05:14.565Z,15.83
2023-02-16T12:07:23.199Z,15.87
2023-02-16T12:09:42.916Z,15.91
2023-02-16T12:12:08.296Z,15.96
2023-02-16T12:14:23.970Z,16.01
2023-02-16T12:16:40.641Z,16.08
2023-02-16T12:18:58.466Z,16.13
2023-02-16T12:21:45.454Z,16.22
2023-02-16T12:24:13.929Z,16.32
2023-02-16T12:26:39.483Z,16.40
2023-02-16T12:28:51.102Z,16.50
2023-02-16T12:31:34.980Z,16.58
2023-02-16T12:34:10.214Z,16.67
2023-02-16T12:36:50.602Z,16.77
2023-02-16T12:39:31.207Z,16.86
2023-02-16T12:41:56.049Z,16.94
2023-02-16T12:44:06.614Z,17.04
2023-02-16T12:46:17.601Z,17.12
2023-02-16T12:48:40.323Z,17.19
2023-02-16T12:51:04.967Z,17.28
2023-02-16T12:53:18.692Z,17.36
2023-02-16T12:55:43.141Z,17.46
2023-02-16T12:58:13.805Z,17.55
2023-02-16T13:00:30.899Z,17.64
2023-02-16T13:02:42.517Z,17.73
2023-02-16T13:04:53.902Z,17.82
2023-02-16T13:07:06.184Z,17.90
2023-02-16T13:09:36.350Z,17.99
2023-02-16T13:11:49.341Z,18.28
2023-02-16T13:13:56.864Z,18.29
2023-02-16T13:16:29.159Z,18.27
2023-02-16T13:18:36.046Z,18.26
2023-02-16T13:20:41.360Z,18.24
2023-02-16T13:23:00.775Z,18.20
2023-02-16T13:25:09.976Z,18.18
2023-02-16T13:27:27.738Z,18.17
2023-02-16T13:29:45.288Z,18.16
2023-02-16T13:32:14.762Z,18.14
2023-02-16T13:34:47.522Z,18.13
2023-02-16T13:37:35.912Z,18.15
2023-02-16T13:39:57.681Z,18.14
2023-02-16T13:42:16.533Z,18.17
2023-02-16T13:44:28.214Z,18.16
2023-02-16T13:46:37.950Z,18.17
2023-02-16T13:48:47.355Z,18.16
2023-02-16T13:50:57.470Z,18.18
2023-02-16T13:53:19.181Z,18.17
2023-02-16T13:55:30.158Z,18.18
2023-02-16T13:57:50.432Z,18.16
2023-02-16T14:00:00.774Z,18.14
2023-02-16T14:02:03.512Z,18.14
2023-02-16T14:04:11.765Z,18.13
2023-02-16T14:06:37.989Z,18.10
2023-02-16T14:08:40.389Z,18.11
2023-02-16T14:10:53.082Z,18.10
2023-02-16T14:12:54.878Z,18.12
2023-02-16T14:15:00.679Z,18.12
2023-02-16T14:17:23.469Z,18.10
2023-02-16T14:19:26.681Z,18.10
2023-02-16T14:21:37.761Z,18.06
2023-02-16T14:23:39.522Z,18.03
2023-02-16T14:25:41.344Z,17.99
2023-02-16T14:27:58.800Z,17.93
2023-02-16T14:30:12.612Z,17.90
2023-02-16T14:32:31.433Z,17.85
2023-02-16T14:34:41.310Z,17.81
2023-02-16T14:37:17.141Z,17.75
2023-02-16T14:39:22.825Z,17.71
2023-02-16T14:41:33.681Z,17.65
2023-02-16T14:43:49.012Z,17.60
2023-02-16T14:45:51.053Z,17.55
2023-02-16T14:48:26.797Z,17.47
2023-02-16T14:50:51.044Z,17.42
2023-02-16T14:53:17.555Z,17.33
2023-02-16T14:55:52.022Z,17.30
2023-02-16T14:57:57.210Z,17.21
2023-02-16T15:00:33.725Z,17.12
2023-02-16T15:02:40.824Z,17.04
2023-02-16T15:04:46.089Z,17.00
2023-02-16T15:06:50.731Z,16.94
2023-02-16T15:08:57.094Z,16.88
2023-02-16T15:10:59.532Z,16.82
2023-02-16T15:13:03.417Z,16.76
2023-02-16T15:15:10.255Z,16.71
2023-02-16T15:17:39.486Z,16.62
2023-02-16T15:19:42.194Z,16.55
2023-02-16T15:21:44.722Z,16.49
2023-02-16T15:23:52.198Z,16.42
2023-02-16T15:26:00.060Z,16.34
2023-02-16T15:28:05.595Z,16.30
2023-02-16T15:30:23.248Z,16.23
2023-02-16T15:32:24.945Z,16.15
2023-02-16T15:34:33.304Z,16.10
2023-02-16T15:36:40.328Z,16.04
2023-02-16T15:38:50.983Z,15.96
2023-02-16T15:41:01.818Z,15.91
2023-02-16T15:43:10.043Z,15.85
2023-02-16T15:45:27.158Z,15.77
2023-02-16T15:47:31.008Z,15.75
2023-02-16T15:49:34.901Z,15.71
2023-02-16T15:51:38.410Z,15.65
2023-02-16T15:53:50.647Z,15.61
2023-02-16T15:55:52.605Z,15.57
2023-02-16T15:57:54.445Z,15.51
2023-02-16T16:00:04.013Z,15.46
2023-02-16T16:02:20.885Z,15.40
2023-02-16T16:04:26.375Z,15.34
2023-02-16T16:06:34.190Z,15.29
2023-02-16T16:08:35.932Z,15.26
2023-02-16T16:10:39.857Z,15.21
2023-02-16T16:12:42.180Z,15.14
2023-02-16T16:14:53.264Z,15.07
2023-02-16T16:17:07.140Z,15.04
2023-02-16T16:19:17.600Z,14.99
2023-02-16T16:21:30.899Z,14.93
2023-02-16T16:23:32.787Z,14.86
2023-02-16T16:25:34.511Z,14.83
2023-02-16T16:27:37.348Z,14.77
2023-02-16T16:29:48.208Z,14.71
2023-02-16T16:31:53.549Z,14.65
2023-02-16T16:34:04.066Z,14.58
2023-02-16T16:36:12.568Z,14.52
2023-02-16T16:38:27.894Z,14.45
2023-02-16T16:40:37.777Z,14.36
2023-02-16T16:42:39.483Z,14.33
2023-02-16T16:44:54.284Z,14.24
2023-02-16T16:46:56.061Z,14.19
2023-02-16T16:49:05.556Z,14.13
2023-02-16T16:51:27.785Z,14.05
2023-02-16T16:53:29.442Z,13.98
2023-02-16T16:55:34.122Z,13.91
2023-02-16T16:57:35.732Z,13.87
2023-02-16T16:59:38.724Z,13.81
2023-02-16T17:01:41.648Z,13.76
2023-02-16T17:03:43.420Z,13.71
2023-02-16T17:05:48.602Z,13.65
2023-02-16T17:07:51.773Z,13.59
2023-02-16T17:09:53.530Z,13.54
2023-02-16T17:11:55.720Z,13.47
2023-02-16T17:14:27.029Z,13.41
2023-02-16T17:16:32.827Z,13.31
2023-02-16T17:18:34.651Z,13.26
2023-02-16T17:20:38.953Z,13.19
2023-02-16T17:22:40.609Z,13.16
2023-02-16T17:24:42.908Z,13.11
2023-02-16T17:26:44.586Z,13.04
2023-02-16T17:28:46.028Z,12.98
2023-02-16T17:30:48.050Z,12.95
2023-02-16T17:32:55.826Z,12.91
2023-02-16T17:35:00.086Z,12.88
2023-02-16T17:37:05.502Z,12.88
2023-02-16T17:39:09.646Z,12.82
2023-02-16T17:41:26.493Z,12.72
2023-02-16T17:43:28.537Z,12.73
2023-02-16T17:45:30.203Z,12.68
2023-02-16T17:47:32.168Z,12.65
2023-02-16T17:49:33.772Z,12.63
2023-02-16T17:51:36.537Z,12.60
2023-02-16T17:53:38.276Z,12.59
2023-02-16T17:55:40.099Z,12.58
2023-02-16T17:57:41.917Z,12.53
2023-02-16T17:59:43.557Z,12.53
2023-02-16T18:01:45.628Z,12.47
2023-02-16T18:03:47.816Z,12.43
2023-02-16T18:05:49.985Z,12.42
2023-02-16T18:07:52.242Z,12.38
2023-02-16T18:09:54.710Z,12.38
2023-02-16T18:11:56.472Z,12.35
2023-02-16T18:13:58.031Z,12.32
2023-02-16T18:16:03.817Z,12.28
2023-02-16T18:18:09.081Z,12.25
2023-02-16T18:20:16.030Z,12.19
2023-02-16T18:22:17.830Z,12.16
2023-02-16T18:24:21.182Z,12.14
2023-02-16T18:26:23.678Z,12.09
2023-02-16T18:28:28.240Z,12.05
2023-02-16T18:30:33.173Z,12.03
2023-02-16T18:32:35.148Z,12.01
2023-02-16T18:34:37.481Z,11.97
2023-02-16T18:36:43.570Z,11.95
2023-02-16T18:38:48.084Z,11.90
2023-02-16T18:40:52.163Z,11.88
2023-02-16T18:42:54.025Z,11.84
2023-02-16T18:44:55.701Z,11.82
2023-02-16T18:46:58.056Z,11.79
2023-02-16T18:48:59.722Z,11.78
2023-02-16T18:51:09.711Z,11.76
2023-02-16T18:53:11.487Z,11.73
2023-02-16T18:55:25.139Z,11.70
2023-02-16T18:57:26.984Z,11.65
2023-02-16T18:59:32.949Z,11.65
2023-02-16T19:01:35.035Z,11.64
2023-02-16T19:03:36.848Z,11.61
2023-02-16T19:05:39.915Z,11.60
2023-02-16T19:07:41.766Z,11.57
2023-02-16T19:09:45.915Z,11.54
2023-02-16T19:11:47.689Z,11.54
2023-02-16T19:13:49.492Z,11.53
2023-02-16T19:16:01.632Z,11.47
2023-02-16T19:18:03.569Z,11.44
2023-02-16T19:20:11.556Z,11.41
2023-02-16T19:22:13.984Z,11.39
2023-02-16T19:24:15.567Z,11.37
2023-02-16T19:26:18.939Z,11.35
2023-02-16T19:28:21.455Z,11.32
2023-02-16T19:30:25.732Z,11.27
2023-02-16T19:32:27.399Z,11.26
2023-02-16T19:34:28.986Z,11.28
2023-02-16T19:36:34.277Z,11.25
2023-02-16T19:38:38.410Z,11.23
2023-02-16T19:40:40.111Z,11.20
2023-02-16T19:42:43.523Z,11.16
2023-02-16T19:44:45.131Z,11.16
2023-02-16T19:46:46.767Z,11.14
2023-02-16T19:48:48.813Z,11.09
2023-02-16T19:50:55.836Z,11.08
2023-02-16T19:52:58.538Z,11.05
2023-02-16T19:55:00.142Z,11.04
2023-02-16T19:57:02.909Z,11.01
2023-02-16T19:59:04.460Z,10.99
2023-02-16T20:01:11.454Z,10.97
2023-02-16T20:03:13.776Z,10.94
2023-02-16T20:05:30.862Z,10.95
2023-02-16T20:07:35.941Z,10.91
2023-02-16T20:09:37.619Z,10.93
2023-02-16T20:11:40.180Z,10.93
2023-02-16T20:13:44.598Z,10.92
2023-02-16T20:15:46.346Z,10.89
2023-02-16T20:17:48.053Z,10.88
2023-02-16T20:19:49.755Z,10.89
2023-02-16T20:21:54.683Z,10.85
2023-02-16T20:23:59.962Z,10.87
2023-02-16T20:26:10.570Z,10.85
2023-02-16T20:28:12.189Z,10.81
2023-02-16T20:30:20.403Z,10.81
2023-02-16T20:32:26.608Z,10.81
2023-02-16T20:34:28.297Z,10.80
2023-02-16T20:36:30.114Z,10.81
2023-02-16T20:38:32.853Z,10.78
2023-02-16T20:40:34.506Z,10.77
2023-02-16T20:42:36.187Z,10.74
2023-02-16T20:44:38.158Z,10.72
2023-02-16T20:46:41.165Z,10.73
2023-02-16T20:48:44.003Z,10.73
2023-02-16T20:50:45.693Z,10.73
2023-02-16T20:52:47.494Z,10.73
2023-02-16T20:54:49.046Z,10.73
2023-02-16T20:56:50.726Z,10.73
2023-02-16T20:58:54.237Z,10.73
2023-02-16T21:00:56.086Z,10.72
2023-02-16T21:02:58.053Z,10.72
2023-02-16T21:04:59.957Z,10.73
2023-02-16T21:07:01.684Z,10.70
2023-02-16T21:09:04.864Z,10.69
2023-02-16T21:11:07.531Z,10.68
2023-02-16T21:13:09.475Z,10.69
2023-02-16T21:15:11.666Z,10.69
2023-02-16T21:17:13.598Z,10.68
2023-02-16T21:19:22.799Z,10.71
2023-02-16T21:21:25.396Z,10.68
2023-02-16T21:23:27.626Z,10.70
2023-02-16T21:25:30.299Z,10.66
2023-02-16T21:27:31.963Z,10.64
2023-02-16T21:29:33.699Z,10.62
2023-02-16T21:31:35.465Z,10.62
2023-02-16T21:33:37.738Z,10.61
2023-02-16T21:35:39.458Z,10.61
2023-02-16T21:37:41.227Z,10.59
2023-02-16T21:40:04.193Z,10.59
2023-02-16T21:42:05.860Z,10.58
2023-02-16T21:44:11.204Z,10.57
2023-02-16T21:46:12.946Z,10.57
2023-02-16T21:48:33.320Z,10.57
2023-02-16T21:50:38.086Z,10.53
2023-02-16T21:52:39.769Z,10.53
2023-02-16T21:54:59.736Z,10.52
2023-02-16T21:57:01.461Z,10.51
2023-02-16T21:59:05.295Z,10.51
2023-02-16T22:01:06.963Z,10.50
2023-02-16T22:03:09.596Z,10.51
2023-02-16T22:05:12.397Z,10.49
2023-02-16T22:07:14.254Z,10.46
2023-02-16T22:09:21.642Z,10.45
2023-02-16T22:11:23.377Z,10.44
2023-02-16T22:13:25.020Z,10.43
2023-02-16T22:15:26.455Z,10.42
2023-02-16T22:17:28.135Z,10.41
2023-02-16T22:19:29.934Z,10.38
2023-02-16T22:21:31.828Z,10.36
2023-02-16T22:23:33.955Z,10.37
2023-02-16T22:25:39.935Z,10.33
2023-02-16T22:27:44.784Z,10.33
2023-02-16T22:29:46.399Z,10.33
2023-02-16T22:31:49.263Z,10.31
2023-02-16T22:34:02.864Z,10.29
2023-02-16T22:36:07.172Z,10.28
2023-02-16T22:38:09.045Z,10.25
2023-02-16T22:40:10.691Z,10.24
2023-02-16T22:42:12.449Z,10.23
2023-02-16T22:44:15.629Z,10.22
2023-02-16T22:46:17.537Z,10.18
2023-02-16T22:48:19.226Z,10.18
2023-02-16T22:50:22.884Z,10.17
2023-02-16T22:52:24.665Z,10.14
2023-02-16T22:54:26.224Z,10.12
2023-02-16T22:56:28.389Z,10.11
2023-02-16T22:58:30.078Z,10.09
2023-02-16T23:00:31.866Z,10.08
2023-02-16T23:02:33.576Z,10.08
2023-02-16T23:04:35.094Z,10.06
2023-02-16T23:06:37.102Z,10.02
2023-02-16T23:08:46.339Z,9.98
2023-02-16T23:11:01.328Z,9.96
2023-02-16T23:13:06.198Z,9.96
2023-02-16T23:15:08.066Z,9.93
2023-02-16T23:17:15.446Z,9.89
2023-02-16T23:19:20.586Z,9.87
2023-02-16T23:21:32.941Z,9.85
2023-02-16T23:23:34.771Z,9.83
2023-02-16T23:25:36.351Z,9.82
2023-02-16T23:27:37.973Z,9.80
2023-02-16T23:29:39.463Z,9.78
2023-02-16T23:31:43.329Z,9.76
2023-02-16T23:33:45.249Z,9.74
2023-02-16T23:35:46.816Z,9.72
2023-02-16T23:37:51.487Z,9.73
2023-02-16T23:39:53.091Z,9.75
2023-02-16T23:41:57.551Z,9.76
2023-02-16T23:44:01.074Z,9.75
2023-02-16T23:46:06.724Z,9.75
2023-02-16T23:48:08.605Z,9.75
2023-02-16T23:50:14.407Z,9.74
2023-02-16T23:52:17.298Z,9.76
2023-02-16T23:54:18.933Z,9.75
2023-02-16T23:56:28.065Z,9.75
2023-02-16T23:58:34.033Z,9.75
